createdAt,value
2022-11-13T00:00:17.632Z,48.50
2022-11-13T00:01:17.617Z,49.15
2022-11-13T00:02:17.683Z,47.53
2022-11-13T00:03:17.618Z,44.47
2022-11-13T00:04:17.595Z,50.27
2022-11-13T00:05:17.599Z,47.53
2022-11-13T00:06:17.577Z,41.89
2022-11-13T00:07:17.659Z,48.02
2022-11-13T00:08:17.670Z,49.47
2022-11-13T00:09:17.553Z,46.08
2022-11-13T00:10:17.552Z,47.53
2022-11-13T00:11:17.547Z,41.09
2022-11-13T00:12:17.556Z,39.80
2022-11-13T00:13:17.522Z,47.53
2022-11-13T00:14:17.518Z,45.44
2022-11-13T00:15:17.519Z,43.18
2022-11-13T00:16:17.514Z,48.82
2022-11-13T00:17:17.503Z,45.28
2022-11-13T00:18:17.485Z,45.28
2022-11-13T00:19:17.484Z,46.08
2022-11-13T00:20:17.482Z,40.61
2022-11-13T00:21:17.479Z,40.61
2022-11-13T00:22:17.459Z,43.34
2022-11-13T00:23:17.447Z,45.60
2022-11-13T00:24:17.533Z,43.83
2022-11-13T00:25:17.432Z,46.41
2022-11-13T00:26:17.417Z,48.66
2022-11-13T00:27:17.418Z,47.86
2022-11-13T00:30:06.924Z,43.18
2022-11-13T00:31:06.917Z,38.83
2022-11-13T00:32:08.025Z,40.77
2022-11-13T00:33:08.003Z,43.34
2022-11-13T00:34:33.604Z,51.40
2022-11-13T00:35:09.978Z,49.15
2022-11-13T00:36:07.976Z,47.37
2022-11-13T00:37:07.977Z,43.99
2022-11-13T00:38:07.964Z,42.86
2022-11-13T00:39:07.943Z,44.79
2022-11-13T00:40:08.034Z,42.54
2022-11-13T00:41:07.925Z,53.82
2022-11-13T00:42:07.922Z,46.89
2022-11-13T00:43:07.922Z,43.34
2022-11-13T00:44:07.901Z,42.86
2022-11-13T00:45:07.889Z,49.95
2022-11-13T00:46:07.892Z,39.48
2022-11-13T00:47:07.875Z,44.79
2022-11-13T00:48:07.892Z,42.22
2022-11-13T00:49:07.864Z,45.76
2022-11-13T00:50:07.851Z,40.93
2022-11-13T00:51:07.846Z,47.70
2022-11-13T00:52:07.836Z,47.21
2022-11-13T00:53:11.556Z,52.69
2022-11-13T00:54:08.824Z,41.73
2022-11-13T00:55:07.821Z,39.96
2022-11-13T00:56:07.901Z,41.09
2022-11-13T00:57:07.798Z,48.82
2022-11-13T00:58:07.806Z,53.82
2022-11-13T00:59:07.801Z,50.27
2022-11-13T01:00:07.781Z,44.15
2022-11-13T01:01:07.786Z,47.86
2022-11-13T01:02:07.799Z,39.96
2022-11-13T01:03:07.764Z,42.38
2022-11-13T01:04:07.763Z,53.17
2022-11-13T01:05:07.743Z,48.18
2022-11-13T01:06:07.790Z,46.25
2022-11-13T01:07:07.850Z,42.06
2022-11-13T01:08:07.727Z,43.34
2022-11-13T01:09:07.724Z,45.28
2022-11-13T01:10:07.703Z,41.57
2022-11-13T01:11:07.688Z,43.67
2022-11-13T01:12:08.463Z,42.06
2022-11-13T01:13:07.721Z,46.08
2022-11-13T01:14:07.670Z,45.92
2022-11-13T01:15:07.673Z,54.95
2022-11-13T01:16:07.651Z,46.41
2022-11-13T01:17:07.649Z,50.92
2022-11-13T01:18:07.635Z,50.60
2022-11-13T01:19:07.972Z,42.54
2022-11-13T01:20:08.370Z,44.96
2022-11-13T01:21:07.616Z,43.51
2022-11-13T01:22:07.610Z,45.12
2022-11-13T01:23:07.595Z,52.37
2022-11-13T01:24:07.584Z,40.93
2022-11-13T01:25:07.585Z,46.08
2022-11-13T01:26:07.568Z,53.98
2022-11-13T01:27:07.573Z,50.60
2022-11-13T01:28:08.388Z,41.41
2022-11-13T01:29:07.549Z,42.54
2022-11-13T01:30:07.544Z,43.18
2022-11-13T01:31:07.532Z,40.61
2022-11-13T01:32:07.528Z,51.24
2022-11-13T01:33:07.524Z,42.06
2022-11-13T01:34:07.508Z,46.25
2022-11-13T01:35:07.514Z,43.51
2022-11-13T01:36:07.502Z,45.28
2022-11-13T01:37:07.489Z,54.46
2022-11-13T01:38:08.293Z,44.96
2022-11-13T01:39:07.467Z,45.28
2022-11-13T01:40:07.459Z,44.31
2022-11-13T01:41:07.449Z,53.66
2022-11-13T01:42:07.455Z,44.63
2022-11-13T01:43:07.435Z,45.44
2022-11-13T01:44:07.521Z,41.09
2022-11-13T01:45:07.421Z,42.06
2022-11-13T01:46:07.408Z,38.99
2022-11-13T01:47:07.409Z,38.99
2022-11-13T01:48:07.416Z,44.79
2022-11-13T01:49:07.398Z,49.63
2022-11-13T01:50:07.384Z,45.92
2022-11-13T01:51:07.371Z,43.51
2022-11-13T01:52:07.371Z,48.82
2022-11-13T01:53:08.360Z,41.25
2022-11-13T01:54:07.359Z,40.77
2022-11-13T01:55:07.348Z,42.54
2022-11-13T01:56:07.334Z,41.57
2022-11-13T01:57:07.326Z,41.25
2022-11-13T01:58:07.333Z,42.38
2022-11-13T01:59:07.314Z,43.67
2022-11-13T02:00:07.413Z,44.79
2022-11-13T02:01:07.881Z,39.96
2022-11-13T02:02:07.313Z,47.05
2022-11-13T02:03:07.295Z,47.05
2022-11-13T02:04:07.275Z,42.54
2022-11-13T02:05:07.272Z,41.89
2022-11-13T02:06:07.273Z,40.93
2022-11-13T02:07:07.273Z,48.66
2022-11-13T02:08:07.249Z,47.37
2022-11-13T02:09:07.235Z,41.41
2022-11-13T02:10:07.230Z,45.12
2022-11-13T02:11:07.215Z,45.12
2022-11-13T02:12:07.223Z,45.92
2022-11-13T02:13:07.210Z,41.41
2022-11-13T02:14:07.192Z,44.15
2022-11-13T02:15:07.187Z,44.96
2022-11-13T02:16:07.274Z,47.05
2022-11-13T02:17:07.170Z,41.41
2022-11-13T02:18:07.167Z,41.57
2022-11-13T02:19:07.881Z,41.41
2022-11-13T02:20:07.149Z,50.60
2022-11-13T02:21:07.162Z,47.05
2022-11-13T02:22:07.131Z,41.41
2022-11-13T02:23:07.130Z,39.48
2022-11-13T02:24:07.113Z,44.96
2022-11-13T02:25:07.112Z,40.77
2022-11-13T02:26:07.096Z,41.09
2022-11-13T02:27:07.089Z,39.48
2022-11-13T02:28:07.078Z,43.02
2022-11-13T02:29:07.079Z,50.76
2022-11-13T02:30:07.550Z,52.85
2022-11-13T02:31:08.065Z,39.48
2022-11-13T02:32:07.909Z,40.93
2022-11-13T02:33:07.047Z,40.28
2022-11-13T02:34:07.038Z,41.57
2022-11-13T02:35:07.029Z,41.25
2022-11-13T02:36:07.042Z,39.80
2022-11-13T02:37:07.012Z,45.76
2022-11-13T02:38:07.002Z,44.96
2022-11-13T02:39:06.999Z,38.03
2022-11-13T02:40:07.012Z,41.89
2022-11-13T02:41:06.978Z,37.71
2022-11-13T02:42:06.975Z,45.60
2022-11-13T02:43:06.968Z,38.19
2022-11-13T02:44:06.967Z,41.41
2022-11-13T02:45:06.956Z,41.73
2022-11-13T02:46:06.943Z,47.21
2022-11-13T02:47:06.931Z,46.25
2022-11-13T02:48:07.028Z,45.12
2022-11-13T02:49:06.912Z,42.06
2022-11-13T02:50:06.948Z,41.09
2022-11-13T02:51:06.912Z,49.47
2022-11-13T02:52:06.889Z,46.08
2022-11-13T02:53:06.876Z,38.99
2022-11-13T02:54:06.867Z,39.16
2022-11-13T02:55:06.862Z,41.73
2022-11-13T02:56:06.877Z,53.17
2022-11-13T02:57:06.854Z,48.98
2022-11-13T02:58:06.838Z,47.37
2022-11-13T02:59:06.832Z,47.70
2022-11-13T03:00:12.248Z,45.60
2022-11-13T03:01:08.815Z,46.89
2022-11-13T03:02:06.869Z,49.79
2022-11-13T03:03:06.799Z,54.30
2022-11-13T03:04:06.893Z,50.76
2022-11-13T03:05:14.363Z,46.08
2022-11-13T03:06:08.775Z,47.05
2022-11-13T03:07:06.840Z,45.76
2022-11-13T03:08:06.818Z,47.05
2022-11-13T03:09:07.310Z,46.57
2022-11-13T03:10:06.761Z,40.77
2022-11-13T03:11:06.747Z,44.31
2022-11-13T03:12:06.742Z,40.77
2022-11-13T03:13:06.740Z,39.80
2022-11-13T03:14:06.720Z,39.48
2022-11-13T03:15:06.713Z,53.66
2022-11-13T03:16:06.698Z,48.66
2022-11-13T03:17:07.697Z,50.92
2022-11-13T03:18:06.686Z,45.76
2022-11-13T03:19:07.148Z,45.12
2022-11-13T03:20:06.767Z,46.25
2022-11-13T03:21:06.667Z,44.96
2022-11-13T03:22:06.683Z,40.61
2022-11-13T03:23:06.646Z,45.28
2022-11-13T03:24:06.697Z,40.77
2022-11-13T03:25:10.387Z,49.15
2022-11-13T03:26:08.629Z,51.40
2022-11-13T03:27:06.630Z,46.73
2022-11-13T03:28:06.603Z,46.57
2022-11-13T03:29:06.597Z,47.70
2022-11-13T03:30:06.590Z,48.02
2022-11-13T03:31:06.577Z,47.53
2022-11-13T03:32:06.576Z,44.79
2022-11-13T03:33:06.573Z,42.22
2022-11-13T03:34:06.558Z,45.92
2022-11-13T03:35:07.314Z,44.31
2022-11-13T03:36:06.636Z,44.96
2022-11-13T03:37:07.390Z,45.12
2022-11-13T03:38:06.532Z,45.44
2022-11-13T03:39:06.521Z,44.79
2022-11-13T03:40:06.503Z,45.28
2022-11-13T03:41:06.512Z,46.89
2022-11-13T03:42:06.503Z,43.83
2022-11-13T03:43:06.490Z,43.02
2022-11-13T03:44:06.483Z,42.54
2022-11-13T03:45:06.468Z,42.22
2022-11-13T03:46:06.470Z,41.25
2022-11-13T03:47:06.452Z,42.22
2022-11-13T03:48:06.461Z,46.57
2022-11-13T03:49:06.437Z,46.73
2022-11-13T03:50:06.435Z,45.44
2022-11-13T03:51:06.423Z,46.57
2022-11-13T03:52:06.511Z,46.73
2022-11-13T03:53:06.422Z,48.66
2022-11-13T03:54:06.405Z,45.92
2022-11-13T03:55:06.394Z,45.28
2022-11-13T03:56:06.386Z,50.60
2022-11-13T03:57:06.377Z,42.54
2022-11-13T03:58:06.388Z,42.54
2022-11-13T03:59:06.366Z,41.73
2022-11-13T04:00:06.357Z,43.51
2022-11-13T04:01:06.354Z,45.28
2022-11-13T04:02:06.424Z,44.15
2022-11-13T04:03:06.342Z,42.38
2022-11-13T04:04:06.333Z,44.47
2022-11-13T04:05:06.330Z,46.57
2022-11-13T04:06:06.312Z,44.63
2022-11-13T04:07:06.354Z,43.83
2022-11-13T04:08:06.393Z,46.08
2022-11-13T04:09:06.298Z,45.44
2022-11-13T04:10:06.820Z,42.22
2022-11-13T04:11:06.283Z,43.51
2022-11-13T04:12:06.265Z,46.41
2022-11-13T04:13:06.298Z,47.70
2022-11-13T04:14:06.256Z,42.86
2022-11-13T04:15:06.251Z,43.51
2022-11-13T04:16:06.231Z,46.08
2022-11-13T04:17:06.227Z,43.34
2022-11-13T04:18:06.218Z,44.47
2022-11-13T04:19:06.217Z,43.99
2022-11-13T04:20:06.224Z,42.06
2022-11-13T04:21:06.208Z,45.76
2022-11-13T04:22:06.223Z,46.89
2022-11-13T04:23:06.221Z,47.37
2022-11-13T04:24:06.278Z,42.54
2022-11-13T04:25:06.189Z,42.70
2022-11-13T04:26:06.175Z,45.28
2022-11-13T04:27:06.150Z,43.02
2022-11-13T04:28:06.147Z,44.96
2022-11-13T04:29:06.134Z,48.34
2022-11-13T04:30:06.138Z,43.67
2022-11-13T04:31:06.110Z,43.83
2022-11-13T04:32:06.120Z,48.18
2022-11-13T04:33:06.103Z,42.54
2022-11-13T04:34:06.101Z,48.18
2022-11-13T04:35:06.093Z,48.98
2022-11-13T04:36:06.085Z,45.92
2022-11-13T04:37:06.080Z,44.79
2022-11-13T04:38:06.065Z,43.67
2022-11-13T04:39:06.052Z,41.89
2022-11-13T04:40:06.154Z,42.86
2022-11-13T04:41:06.046Z,50.60
2022-11-13T04:42:06.027Z,43.18
2022-11-13T04:43:06.038Z,44.47
2022-11-13T04:44:06.041Z,42.38
2022-11-13T04:45:06.008Z,42.86
2022-11-13T04:46:06.006Z,42.06
2022-11-13T04:47:05.988Z,45.44
2022-11-13T04:48:05.992Z,43.34
2022-11-13T04:49:05.987Z,44.96
2022-11-13T04:50:05.984Z,41.73
2022-11-13T04:51:05.973Z,41.41
2022-11-13T04:52:05.956Z,46.89
2022-11-13T04:53:05.948Z,48.18
2022-11-13T04:54:05.937Z,46.08
2022-11-13T04:55:05.926Z,43.67
2022-11-13T04:56:06.998Z,44.31
2022-11-13T04:57:05.922Z,43.83
2022-11-13T04:58:05.950Z,43.51
2022-11-13T04:59:05.911Z,45.12
2022-11-13T05:00:05.900Z,46.57
2022-11-13T05:01:05.911Z,52.37
2022-11-13T05:02:05.914Z,52.85
2022-11-13T05:03:05.874Z,48.02
2022-11-13T05:04:05.873Z,44.15
2022-11-13T05:05:05.859Z,43.99
2022-11-13T05:06:05.853Z,45.92
2022-11-13T05:07:06.029Z,45.92
2022-11-13T05:08:05.827Z,50.76
2022-11-13T05:09:05.832Z,47.86
2022-11-13T05:10:05.838Z,42.22
2022-11-13T05:11:05.815Z,53.82
2022-11-13T05:12:05.923Z,42.22
2022-11-13T05:13:05.796Z,44.63
2022-11-13T05:14:05.782Z,44.63
2022-11-13T05:15:05.778Z,43.34
2022-11-13T05:16:05.780Z,51.72
2022-11-13T05:17:05.765Z,43.99
2022-11-13T05:18:05.792Z,43.83
2022-11-13T05:19:05.754Z,48.50
2022-11-13T05:20:06.331Z,42.22
2022-11-13T05:21:05.728Z,43.02
2022-11-13T05:22:05.724Z,43.67
2022-11-13T05:23:05.720Z,42.70
2022-11-13T05:24:05.742Z,41.57
2022-11-13T05:25:05.720Z,54.79
2022-11-13T05:26:05.701Z,43.51
2022-11-13T05:27:05.703Z,41.57
2022-11-13T05:28:05.777Z,48.34
2022-11-13T05:29:05.668Z,43.83
2022-11-13T05:30:05.689Z,42.54
2022-11-13T05:31:05.659Z,45.76
2022-11-13T05:32:05.653Z,47.70
2022-11-13T05:33:05.661Z,47.05
2022-11-13T05:34:06.256Z,44.63
2022-11-13T05:35:06.632Z,52.05
2022-11-13T05:36:05.613Z,52.37
2022-11-13T05:37:05.605Z,41.09
2022-11-13T05:38:05.596Z,40.77
2022-11-13T05:39:05.597Z,40.77
2022-11-13T05:40:05.586Z,45.92
2022-11-13T05:41:05.591Z,48.82
2022-11-13T05:42:05.576Z,44.31
2022-11-13T05:43:05.563Z,45.92
2022-11-13T05:44:05.656Z,44.79
2022-11-13T05:45:05.552Z,44.96
2022-11-13T05:46:05.537Z,48.98
2022-11-13T05:47:05.533Z,48.66
2022-11-13T05:48:05.523Z,53.66
2022-11-13T05:49:05.511Z,46.25
2022-11-13T05:50:05.517Z,52.37
2022-11-13T05:51:05.494Z,51.40
2022-11-13T05:52:05.496Z,42.70
2022-11-13T05:53:05.477Z,46.57
2022-11-13T05:54:05.477Z,42.70
2022-11-13T05:55:05.474Z,40.28
2022-11-13T05:56:05.458Z,49.79
2022-11-13T05:57:05.462Z,40.93
2022-11-13T05:58:05.447Z,45.60
2022-11-13T05:59:05.448Z,43.51
2022-11-13T06:00:05.533Z,44.47
2022-11-13T06:01:05.419Z,41.73
2022-11-13T06:02:05.446Z,46.73
2022-11-13T06:03:07.331Z,42.70
2022-11-13T06:04:05.410Z,40.77
2022-11-13T06:05:05.402Z,41.25
2022-11-13T06:06:05.380Z,43.02
2022-11-13T06:07:05.420Z,43.99
2022-11-13T06:08:05.368Z,42.38
2022-11-13T06:09:05.365Z,42.86
2022-11-13T06:10:05.368Z,45.92
2022-11-13T06:11:05.346Z,52.85
2022-11-13T06:12:05.337Z,53.50
2022-11-13T06:13:05.341Z,48.18
2022-11-13T06:14:05.328Z,48.02
2022-11-13T06:15:06.325Z,47.70
2022-11-13T06:16:05.403Z,46.25
2022-11-13T06:17:05.300Z,45.92
2022-11-13T06:18:05.309Z,47.05
2022-11-13T06:19:05.279Z,48.98
2022-11-13T06:20:05.273Z,45.12
2022-11-13T06:21:05.285Z,44.96
2022-11-13T06:22:05.256Z,46.89
2022-11-13T06:23:05.238Z,48.50
2022-11-13T06:24:05.834Z,46.08
2022-11-13T06:25:05.236Z,47.37
2022-11-13T06:26:05.243Z,47.37
2022-11-13T06:27:05.232Z,48.34
2022-11-13T06:28:05.215Z,44.79
2022-11-13T06:29:05.212Z,44.15
2022-11-13T06:30:05.199Z,45.76
2022-11-13T06:31:05.202Z,42.22
2022-11-13T06:32:05.288Z,40.61
2022-11-13T06:33:05.174Z,45.12
2022-11-13T06:34:05.188Z,43.67
2022-11-13T06:35:05.161Z,48.82
2022-11-13T06:36:05.240Z,40.77
2022-11-13T06:37:05.404Z,44.15
2022-11-13T06:38:05.566Z,43.18
2022-11-13T06:39:05.190Z,40.77
2022-11-13T06:40:05.132Z,41.41
2022-11-13T06:41:05.121Z,48.02
2022-11-13T06:42:05.106Z,47.53
2022-11-13T06:43:05.097Z,44.63
2022-11-13T06:44:05.095Z,42.22
2022-11-13T06:45:05.082Z,43.18
2022-11-13T06:46:05.078Z,44.15
2022-11-13T06:47:05.062Z,46.25
2022-11-13T06:48:05.160Z,53.33
2022-11-13T06:49:05.068Z,53.82
2022-11-13T06:50:05.039Z,47.37
2022-11-13T06:51:05.035Z,43.51
2022-11-13T06:52:05.026Z,47.86
2022-11-13T06:53:05.025Z,46.73
2022-11-13T06:54:05.015Z,45.60
2022-11-13T06:55:05.013Z,46.57
2022-11-13T06:56:05.000Z,43.99
2022-11-13T06:57:04.985Z,46.73
2022-11-13T06:58:04.985Z,44.15
2022-11-13T06:59:08.319Z,55.43
2022-11-13T07:00:05.964Z,49.95
2022-11-13T07:01:04.997Z,51.40
2022-11-13T07:02:04.948Z,50.60
2022-11-13T07:03:04.954Z,45.12
2022-11-13T07:04:05.034Z,44.79
2022-11-13T07:05:04.926Z,45.76
2022-11-13T07:06:05.943Z,41.57
2022-11-13T07:07:04.929Z,43.02
2022-11-13T07:08:04.925Z,52.69
2022-11-13T07:09:05.904Z,45.44
2022-11-13T07:10:04.890Z,44.15
2022-11-13T07:11:04.885Z,44.31
2022-11-13T07:12:04.873Z,45.28
2022-11-13T07:13:04.870Z,50.11
2022-11-13T07:14:04.862Z,49.95
2022-11-13T07:15:04.854Z,44.47
2022-11-13T07:16:15.895Z,45.44
2022-11-13T07:17:10.663Z,43.99
2022-11-13T07:18:05.834Z,47.05
2022-11-13T07:19:04.826Z,45.44
2022-11-13T07:20:04.915Z,47.53
2022-11-13T07:21:04.814Z,46.41
2022-11-13T07:22:04.810Z,49.95
2022-11-13T07:23:04.786Z,50.60
2022-11-13T07:24:04.786Z,46.57
2022-11-13T07:25:04.781Z,46.41
2022-11-13T07:26:04.772Z,56.72
2022-11-13T07:27:04.762Z,46.89
2022-11-13T07:28:04.752Z,43.67
2022-11-13T07:29:04.742Z,49.79
2022-11-13T07:30:04.738Z,48.02
2022-11-13T07:31:04.734Z,55.91
2022-11-13T07:32:04.722Z,50.27
2022-11-13T07:33:04.717Z,45.76
2022-11-13T07:34:04.713Z,48.66
2022-11-13T07:35:04.698Z,50.76
2022-11-13T07:36:04.821Z,53.82
2022-11-13T07:37:04.689Z,49.15
2022-11-13T07:38:04.678Z,47.86
2022-11-13T07:39:04.663Z,48.66
2022-11-13T07:40:04.661Z,45.28
2022-11-13T07:41:04.650Z,50.60
2022-11-13T07:42:04.643Z,48.50
2022-11-13T07:43:04.670Z,57.36
2022-11-13T07:44:08.941Z,51.24
2022-11-13T07:45:05.624Z,44.31
2022-11-13T07:46:04.616Z,50.11
2022-11-13T07:47:04.603Z,47.05
2022-11-13T07:48:04.597Z,49.47
2022-11-13T07:49:04.601Z,53.50
2022-11-13T07:50:10.508Z,55.59
2022-11-13T07:51:06.573Z,46.57
2022-11-13T07:52:04.575Z,54.14
2022-11-13T07:53:04.553Z,49.79
2022-11-13T07:54:04.549Z,56.24
2022-11-13T07:55:04.545Z,56.24
2022-11-13T07:56:04.532Z,53.82
2022-11-13T07:57:04.531Z,48.82
2022-11-13T07:58:04.517Z,57.04
2022-11-13T07:59:04.530Z,53.17
2022-11-13T08:00:04.506Z,47.86
2022-11-13T08:01:05.436Z,55.75
2022-11-13T08:02:04.482Z,52.53
2022-11-13T08:03:04.480Z,58.65
2022-11-13T08:04:04.482Z,51.24
2022-11-13T08:05:04.477Z,55.43
2022-11-13T08:06:04.451Z,57.69
2022-11-13T08:07:06.431Z,50.92
2022-11-13T08:08:04.532Z,51.88
2022-11-13T08:09:04.435Z,52.85
2022-11-13T08:10:04.440Z,53.50
2022-11-13T08:11:05.927Z,54.30
2022-11-13T08:12:04.404Z,54.79
2022-11-13T08:13:04.401Z,53.17
2022-11-13T08:14:04.387Z,53.33
2022-11-13T08:15:07.143Z,51.40
2022-11-13T08:16:04.368Z,51.40
2022-11-13T08:17:04.366Z,56.07
2022-11-13T08:18:04.366Z,55.43
2022-11-13T08:19:04.350Z,57.20
2022-11-13T08:20:04.338Z,60.10
2022-11-13T08:21:04.337Z,58.65
2022-11-13T08:22:04.324Z,49.95
2022-11-13T08:23:04.326Z,49.31
2022-11-13T08:24:04.402Z,51.24
2022-11-13T08:25:04.298Z,55.91
2022-11-13T08:26:04.317Z,53.66
2022-11-13T08:27:04.286Z,54.30
2022-11-13T08:28:08.740Z,53.82
2022-11-13T08:29:05.264Z,55.59
2022-11-13T08:30:04.260Z,54.14
2022-11-13T08:31:04.287Z,58.01
2022-11-13T08:32:04.241Z,48.98
2022-11-13T08:33:04.874Z,48.34
2022-11-13T08:34:04.231Z,54.79
2022-11-13T08:35:04.228Z,61.07
2022-11-13T08:36:04.227Z,58.97
2022-11-13T08:37:04.216Z,56.72
2022-11-13T08:38:04.217Z,54.62
2022-11-13T08:39:04.204Z,53.01
2022-11-13T08:40:04.274Z,49.31
2022-11-13T08:41:08.688Z,50.76
2022-11-13T08:42:06.163Z,48.02
2022-11-13T08:43:04.881Z,59.30
2022-11-13T08:44:04.169Z,58.17
2022-11-13T08:45:04.148Z,53.50
2022-11-13T08:46:04.140Z,57.85
2022-11-13T08:47:04.147Z,57.04
2022-11-13T08:48:04.127Z,53.50
2022-11-13T08:49:04.127Z,58.97
2022-11-13T08:50:04.867Z,58.33
2022-11-13T08:51:04.097Z,57.36
2022-11-13T08:52:04.114Z,59.78
2022-11-13T08:53:04.101Z,59.62
2022-11-13T08:54:04.083Z,57.52
2022-11-13T08:55:04.091Z,58.81
2022-11-13T08:56:04.160Z,59.78
2022-11-13T08:57:06.262Z,58.49
2022-11-13T08:58:05.057Z,58.97
2022-11-13T08:59:05.034Z,61.55
2022-11-13T09:00:04.082Z,57.36
2022-11-13T09:01:04.030Z,60.75
2022-11-13T09:02:04.860Z,59.14
2022-11-13T09:03:04.008Z,56.07
2022-11-13T09:04:04.056Z,56.88
2022-11-13T09:05:03.995Z,58.49
2022-11-13T09:06:03.996Z,52.85
2022-11-13T09:07:04.010Z,57.52
2022-11-13T09:08:03.969Z,59.62
2022-11-13T09:09:03.968Z,56.24
2022-11-13T09:10:03.992Z,54.95
2022-11-13T09:11:03.954Z,54.30
2022-11-13T09:12:04.044Z,56.72
2022-11-13T09:13:03.934Z,53.50
2022-11-13T09:14:03.945Z,55.91
2022-11-13T09:15:03.926Z,52.85
2022-11-13T09:16:03.910Z,59.14
2022-11-13T09:17:04.905Z,58.65
2022-11-13T09:18:04.020Z,56.72
2022-11-13T09:19:04.152Z,52.21
2022-11-13T09:20:06.091Z,54.79
2022-11-13T09:21:03.887Z,58.01
2022-11-13T09:22:03.875Z,63.97
2022-11-13T09:23:03.869Z,59.94
2022-11-13T09:24:03.857Z,55.91
2022-11-13T09:25:03.844Z,53.98
2022-11-13T09:26:03.853Z,54.62
2022-11-13T09:27:03.829Z,50.92
2022-11-13T09:28:03.980Z,56.07
2022-11-13T09:29:03.807Z,58.33
2022-11-13T09:30:03.804Z,59.62
2022-11-13T09:31:03.794Z,58.01
2022-11-13T09:32:03.790Z,54.95
2022-11-13T09:33:03.793Z,49.95
2022-11-13T09:34:03.769Z,56.72
2022-11-13T09:35:03.764Z,58.17
2022-11-13T09:36:03.766Z,58.49
2022-11-13T09:37:03.835Z,51.88
2022-11-13T09:38:09.448Z,55.43
2022-11-13T09:39:05.747Z,55.43
2022-11-13T09:40:03.736Z,52.69
2022-11-13T09:41:03.713Z,58.17
2022-11-13T09:42:03.719Z,56.40
2022-11-13T09:43:03.706Z,57.52
2022-11-13T09:44:03.827Z,59.78
2022-11-13T09:45:03.690Z,54.14
2022-11-13T09:46:03.704Z,59.62
2022-11-13T09:47:03.733Z,60.26
2022-11-13T09:48:04.454Z,55.75
2022-11-13T09:49:03.658Z,54.14
2022-11-13T09:50:03.647Z,57.20
2022-11-13T09:51:03.678Z,60.10
2022-11-13T09:52:06.562Z,56.40
2022-11-13T09:53:04.688Z,59.94
2022-11-13T09:54:03.641Z,57.04
2022-11-13T09:55:03.606Z,59.14
2022-11-13T09:56:03.603Z,56.72
2022-11-13T09:57:03.650Z,54.30
2022-11-13T09:58:03.582Z,53.33
2022-11-13T09:59:04.418Z,58.49
2022-11-13T10:00:03.669Z,56.72
2022-11-13T10:01:03.599Z,60.10
2022-11-13T10:02:03.548Z,60.10
2022-11-13T10:03:04.549Z,61.07
2022-11-13T10:04:04.527Z,61.39
2022-11-13T10:05:04.531Z,61.07
2022-11-13T10:06:03.556Z,57.69
2022-11-13T10:07:03.614Z,58.01
2022-11-13T10:08:04.875Z,57.52
2022-11-13T10:09:03.579Z,57.20
2022-11-13T10:10:03.506Z,56.56
2022-11-13T10:11:03.500Z,55.91
2022-11-13T10:12:03.497Z,61.39
2022-11-13T10:13:04.474Z,58.81
2022-11-13T10:14:03.477Z,57.36
2022-11-13T10:15:03.462Z,53.82
2022-11-13T10:16:03.560Z,58.81
2022-11-13T10:17:03.445Z,59.30
2022-11-13T10:18:03.433Z,59.14
2022-11-13T10:19:04.379Z,57.20
2022-11-13T10:20:03.428Z,58.97
2022-11-13T10:21:08.257Z,60.59
2022-11-13T10:22:31.775Z,57.85
2022-11-13T10:23:05.393Z,60.10
2022-11-13T10:24:03.390Z,58.81
2022-11-13T10:25:03.961Z,57.20
2022-11-13T10:26:03.370Z,54.95
2022-11-13T10:27:03.371Z,54.46
2022-11-13T10:28:16.170Z,59.46
2022-11-13T10:29:05.380Z,59.62
2022-11-13T10:30:03.365Z,59.14
2022-11-13T10:31:03.351Z,59.46
2022-11-13T10:32:03.416Z,57.04
2022-11-13T10:33:03.313Z,60.91
2022-11-13T10:34:03.312Z,59.14
2022-11-13T10:35:03.303Z,59.46
2022-11-13T10:36:03.296Z,60.26
2022-11-13T10:37:03.291Z,59.78
2022-11-13T10:38:07.866Z,60.42
2022-11-13T10:39:05.274Z,55.91
2022-11-13T10:40:05.880Z,57.36
2022-11-13T10:41:03.247Z,58.49
2022-11-13T10:42:03.249Z,58.01
2022-11-13T10:43:03.254Z,56.88
2022-11-13T10:44:03.224Z,59.46
2022-11-13T10:45:05.895Z,56.72
2022-11-13T10:46:04.212Z,60.10
2022-11-13T10:47:03.214Z,61.55
2022-11-13T10:48:05.053Z,61.87
2022-11-13T10:49:04.530Z,56.56
2022-11-13T10:50:03.287Z,60.10
2022-11-13T10:51:03.954Z,62.04
2022-11-13T10:52:06.972Z,62.36
2022-11-13T10:53:04.189Z,58.65
2022-11-13T10:54:03.163Z,59.30
2022-11-13T10:55:03.216Z,60.10
2022-11-13T10:56:03.145Z,61.55
2022-11-13T10:57:03.152Z,59.62
2022-11-13T10:58:03.128Z,59.94
2022-11-13T10:59:03.108Z,58.81
2022-11-13T11:00:03.108Z,60.42
2022-11-13T11:01:03.129Z,59.78
2022-11-13T11:02:03.101Z,59.78
2022-11-13T11:03:03.078Z,56.56
2022-11-13T11:04:03.978Z,60.26
2022-11-13T11:05:03.063Z,57.04
2022-11-13T11:06:03.049Z,57.69
2022-11-13T11:07:19.662Z,55.91
2022-11-13T11:08:05.944Z,60.75
2022-11-13T11:09:03.026Z,57.69
2022-11-13T11:10:03.019Z,59.46
2022-11-13T11:11:03.031Z,59.46
2022-11-13T11:12:03.012Z,61.07
2022-11-13T11:13:03.023Z,61.07
2022-11-13T11:14:02.989Z,59.30
2022-11-13T11:15:02.992Z,58.49
2022-11-13T11:16:02.965Z,58.01
2022-11-13T11:17:02.964Z,59.78
2022-11-13T11:18:03.467Z,58.97
2022-11-13T11:19:02.952Z,61.71
2022-11-13T11:20:03.559Z,62.04
2022-11-13T11:21:02.933Z,60.26
2022-11-13T11:22:02.924Z,57.85
2022-11-13T11:23:02.923Z,60.10
2022-11-13T11:24:02.916Z,57.52
2022-11-13T11:25:02.904Z,59.46
2022-11-13T11:26:02.895Z,59.14
2022-11-13T11:27:02.882Z,58.33
2022-11-13T11:28:02.880Z,57.52
2022-11-13T11:29:02.874Z,58.01
2022-11-13T11:30:02.869Z,53.17
2022-11-13T11:31:02.858Z,55.27
2022-11-13T11:32:04.390Z,54.14
2022-11-13T11:33:02.852Z,58.01
2022-11-13T11:34:02.826Z,56.72
2022-11-13T11:35:02.825Z,60.59
2022-11-13T11:36:02.919Z,58.17
2022-11-13T11:37:02.834Z,58.17
2022-11-13T11:38:02.798Z,59.46
2022-11-13T11:39:03.397Z,58.17
2022-11-13T11:40:02.782Z,59.62
2022-11-13T11:41:02.804Z,59.78
2022-11-13T11:42:02.767Z,58.65
2022-11-13T11:43:02.801Z,58.01
2022-11-13T11:44:02.747Z,60.26
2022-11-13T11:45:02.756Z,58.81
2022-11-13T11:46:02.743Z,55.27
2022-11-13T11:47:02.766Z,56.40
2022-11-13T11:48:02.717Z,54.30
2022-11-13T11:49:02.709Z,58.01
2022-11-13T11:50:02.737Z,59.78
2022-11-13T11:51:02.697Z,60.10
2022-11-13T11:52:02.792Z,61.87
2022-11-13T11:53:02.685Z,61.55
2022-11-13T11:54:02.683Z,63.65
2022-11-13T11:55:02.896Z,60.26
2022-11-13T11:56:02.646Z,59.94
2022-11-13T11:57:02.643Z,60.42
2022-11-13T11:58:02.635Z,55.27
2022-11-13T11:59:02.648Z,60.91
2022-11-13T12:00:02.636Z,59.62
2022-11-13T12:01:02.606Z,60.10
2022-11-13T12:02:02.603Z,59.94
2022-11-13T12:03:02.600Z,62.04
2022-11-13T12:04:02.596Z,59.62
2022-11-13T12:05:02.700Z,62.20
2022-11-13T12:06:02.574Z,61.55
2022-11-13T12:07:02.613Z,57.52
2022-11-13T12:08:02.651Z,60.10
2022-11-13T12:09:02.556Z,57.85
2022-11-13T12:10:02.541Z,54.46
2022-11-13T12:11:02.541Z,62.04
2022-11-13T12:12:02.533Z,59.14
2022-11-13T12:13:02.495Z,58.65
2022-11-13T12:14:03.522Z,59.94
2022-11-13T12:15:02.516Z,59.62
2022-11-13T12:16:02.511Z,57.85
2022-11-13T12:17:02.691Z,57.52
2022-11-13T12:18:02.469Z,60.10
2022-11-13T12:19:02.474Z,57.36
2022-11-13T12:20:02.464Z,62.36
2022-11-13T12:21:02.459Z,56.88
2022-11-13T12:22:03.399Z,60.26
2022-11-13T12:23:02.451Z,59.94
2022-11-13T12:24:02.529Z,57.85
2022-11-13T12:25:02.437Z,61.23
2022-11-13T12:26:02.427Z,60.91
2022-11-13T12:27:02.412Z,57.85
2022-11-13T12:28:02.419Z,58.01
2022-11-13T12:29:02.402Z,60.75
2022-11-13T12:30:02.392Z,59.30
2022-11-13T12:31:02.404Z,57.85
2022-11-13T12:32:02.376Z,60.42
2022-11-13T12:33:02.362Z,55.43
2022-11-13T12:34:02.365Z,61.71
2022-11-13T12:35:02.362Z,61.55
2022-11-13T12:36:02.367Z,60.26
2022-11-13T12:37:02.329Z,58.33
2022-11-13T12:38:02.321Z,60.75
2022-11-13T12:39:02.343Z,59.14
2022-11-13T12:40:02.401Z,58.17
2022-11-13T12:41:02.309Z,58.49
2022-11-13T12:42:02.290Z,59.78
2022-11-13T12:43:02.282Z,59.14
2022-11-13T12:44:02.909Z,59.30
2022-11-13T12:45:02.288Z,53.66
2022-11-13T12:46:02.269Z,60.42
2022-11-13T12:47:02.272Z,58.97
2022-11-13T12:48:02.248Z,60.91
2022-11-13T12:49:02.242Z,58.65
2022-11-13T12:50:02.245Z,59.62
2022-11-13T12:51:02.225Z,58.65
2022-11-13T12:52:02.223Z,58.65
2022-11-13T12:53:02.212Z,58.33
2022-11-13T12:54:02.211Z,56.07